sensor_id;sensor_type;location;lat;lon;timestamp;P1;P2;P0
49343;PMS5003;35210;41.606;-87.602;2023-03-01T00:01:19;20.00;17.20;10.80
49343;PMS5003;35210;41.606;-87.602;2023-03-01T00:03:48;15.80;14.20;7.00
49343;PMS5003;35210;41.606;-87.602;2023-03-01T00:06:17;18.00;17.80;10.40
49343;PMS5003;35210;41.606;-87.602;2023-03-01T00:08:46;16.00;16.00;8.40
49343;PMS5003;35210;41.606;-87.602;2023-03-01T00:11:16;20.20;17.20;11.60
49343;PMS5003;35210;41.606;-87.602;2023-03-01T00:13:46;18.20;16.60;10.40
49343;PMS5003;35210;41.606;-87.602;2023-03-01T00:16:17;17.20;17.00;10.80
49343;PMS5003;35210;41.606;-87.602;2023-03-01T00:18:51;20.20;16.40;9.20
49343;PMS5003;35210;41.606;-87.602;2023-03-01T00:21:21;22.40;18.80;11.00
49343;PMS5003;35210;41.606;-87.602;2023-03-01T00:23:50;20.60;19.00;10.60
49343;PMS5003;35210;41.606;-87.602;2023-03-01T00:26:19;22.00;16.00;11.20
49343;PMS5003;35210;41.606;-87.602;2023-03-01T00:28:48;17.20;14.40;11.00
49343;PMS5003;35210;41.606;-87.602;2023-03-01T00:31:17;20.80;19.80;11.00
49343;PMS5003;35210;41.606;-87.602;2023-03-01T00:33:48;28.00;26.00;16.20
49343;PMS5003;35210;41.606;-87.602;2023-03-01T00:36:19;29.40;25.80;16.00
49343;PMS5003;35210;41.606;-87.602;2023-03-01T00:38:47;22.60;19.80;11.20
49343;PMS5003;35210;41.606;-87.602;2023-03-01T00:41:16;28.20;25.20;14.60
49343;PMS5003;35210;41.606;-87.602;2023-03-01T00:43:45;23.40;22.60;10.80
49343;PMS5003;35210;41.606;-87.602;2023-03-01T00:46:14;28.80;25.00;15.00
49343;PMS5003;35210;41.606;-87.602;2023-03-01T00:48:45;23.80;23.80;13.00
49343;PMS5003;35210;41.606;-87.602;2023-03-01T00:51:14;27.40;25.80;14.40
49343;PMS5003;35210;41.606;-87.602;2023-03-01T00:53:43;24.80;23.00;14.40
49343;PMS5003;35210;41.606;-87.602;2023-03-01T00:56:13;28.00;24.40;14.80
49343;PMS5003;35210;41.606;-87.602;2023-03-01T00:58:41;28.80;25.80;15.20
49343;PMS5003;35210;41.606;-87.602;2023-03-01T01:01:10;25.20;22.40;14.20
49343;PMS5003;35210;41.606;-87.602;2023-03-01T01:03:46;27.00;24.60;14.00
49343;PMS5003;35210;41.606;-87.602;2023-03-01T01:06:16;24.40;22.60;13.00
49343;PMS5003;35210;41.606;-87.602;2023-03-01T01:08:46;22.60;22.20;13.00
49343;PMS5003;35210;41.606;-87.602;2023-03-01T01:11:15;23.20;21.20;13.40
49343;PMS5003;35210;41.606;-87.602;2023-03-01T01:13:44;19.40;19.40;11.80
49343;PMS5003;35210;41.606;-87.602;2023-03-01T01:16:13;23.20;21.60;12.80
49343;PMS5003;35210;41.606;-87.602;2023-03-01T01:18:42;20.40;20.00;9.00
49343;PMS5003;35210;41.606;-87.602;2023-03-01T01:21:13;20.40;20.00;12.00
49343;PMS5003;35210;41.606;-87.602;2023-03-01T01:23:42;23.40;19.40;10.20
49343;PMS5003;35210;41.606;-87.602;2023-03-01T01:26:12;25.20;22.00;12.20
49343;PMS5003;35210;41.606;-87.602;2023-03-01T01:28:44;28.40;23.40;15.00
49343;PMS5003;35210;41.606;-87.602;2023-03-01T01:31:12;25.60;23.00;11.40
49343;PMS5003;35210;41.606;-87.602;2023-03-01T01:33:41;25.20;23.40;13.40
49343;PMS5003;35210;41.606;-87.602;2023-03-01T01:36:09;27.60;22.60;13.40
49343;PMS5003;35210;41.606;-87.602;2023-03-01T01:38:39;24.40;23.00;13.00
49343;PMS5003;35210;41.606;-87.602;2023-03-01T01:41:09;24.20;22.20;14.00
49343;PMS5003;35210;41.606;-87.602;2023-03-01T01:43:39;21.40;21.20;14.20
49343;PMS5003;35210;41.606;-87.602;2023-03-01T01:46:12;23.40;20.80;9.40
49343;PMS5003;35210;41.606;-87.602;2023-03-01T01:48:50;26.60;23.40;13.40
49343;PMS5003;35210;41.606;-87.602;2023-03-01T01:51:24;24.60;21.60;14.00
49343;PMS5003;35210;41.606;-87.602;2023-03-01T01:54:06;23.80;21.80;12.20
49343;PMS5003;35210;41.606;-87.602;2023-03-01T01:56:38;24.20;24.20;15.60
49343;PMS5003;35210;41.606;-87.602;2023-03-01T01:59:11;21.60;19.60;11.20
49343;PMS5003;35210;41.606;-87.602;2023-03-01T02:01:40;22.20;21.60;14.40
49343;PMS5003;35210;41.606;-87.602;2023-03-01T02:04:08;27.80;24.20;10.80
49343;PMS5003;35210;41.606;-87.602;2023-03-01T02:06:37;27.40;25.40;12.80
49343;PMS5003;35210;41.606;-87.602;2023-03-01T02:09:11;22.60;21.20;12.00
49343;PMS5003;35210;41.606;-87.602;2023-03-01T02:11:42;28.80;26.20;15.00
49343;PMS5003;35210;41.606;-87.602;2023-03-01T02:14:12;25.40;21.80;13.00
49343;PMS5003;35210;41.606;-87.602;2023-03-01T02:16:41;30.60;29.00;17.00
49343;PMS5003;35210;41.606;-87.602;2023-03-01T02:19:09;28.40;27.20;15.40
49343;PMS5003;35210;41.606;-87.602;2023-03-01T02:21:48;27.40;23.80;14.40
49343;PMS5003;35210;41.606;-87.602;2023-03-01T02:24:26;29.20;26.40;15.00
49343;PMS5003;35210;41.606;-87.602;2023-03-01T02:27:02;32.60;22.80;14.00
49343;PMS5003;35210;41.606;-87.602;2023-03-01T02:29:32;28.20;23.40;15.40
49343;PMS5003;35210;41.606;-87.602;2023-03-01T02:32:01;23.40;22.20;13.00
49343;PMS5003;35210;41.606;-87.602;2023-03-01T02:34:31;32.00;23.60;15.60
49343;PMS5003;35210;41.606;-87.602;2023-03-01T02:37:00;30.60;27.40;16.00
49343;PMS5003;35210;41.606;-87.602;2023-03-01T02:39:31;29.20;26.20;15.60
49343;PMS5003;35210;41.606;-87.602;2023-03-01T02:42:07;31.40;28.00;16.00
49343;PMS5003;35210;41.606;-87.602;2023-03-01T02:44:40;28.00;23.20;15.20
49343;PMS5003;35210;41.606;-87.602;2023-03-01T02:47:08;35.00;23.40;13.00
49343;PMS5003;35210;41.606;-87.602;2023-03-01T02:49:37;31.40;28.40;16.60
49343;PMS5003;35210;41.606;-87.602;2023-03-01T02:52:12;38.00;32.80;18.20
49343;PMS5003;35210;41.606;-87.602;2023-03-01T02:54:52;34.00;28.20;15.00
49343;PMS5003;35210;41.606;-87.602;2023-03-01T02:57:29;38.20;27.80;17.60
49343;PMS5003;35210;41.606;-87.602;2023-03-01T03:00:02;28.80;25.80;16.00
49343;PMS5003;35210;41.606;-87.602;2023-03-01T03:02:34;31.00;28.20;17.00
49343;PMS5003;35210;41.606;-87.602;2023-03-01T03:05:04;28.00;25.60;17.80
49343;PMS5003;35210;41.606;-87.602;2023-03-01T03:07:34;36.40;28.40;17.00
49343;PMS5003;35210;41.606;-87.602;2023-03-01T03:10:05;29.40;27.20;17.60
49343;PMS5003;35210;41.606;-87.602;2023-03-01T03:12:36;32.20;27.40;16.20
49343;PMS5003;35210;41.606;-87.602;2023-03-01T03:15:07;38.00;30.40;16.20
49343;PMS5003;35210;41.606;-87.602;2023-03-01T03:17:38;32.00;26.20;17.80
49343;PMS5003;35210;41.606;-87.602;2023-03-01T03:20:09;27.00;25.40;17.00
49343;PMS5003;35210;41.606;-87.602;2023-03-01T03:22:44;33.00;28.60;15.80
49343;PMS5003;35210;41.606;-87.602;2023-03-01T03:25:13;32.40;28.80;17.20
49343;PMS5003;35210;41.606;-87.602;2023-03-01T03:27:41;28.20;23.00;11.80
49343;PMS5003;35210;41.606;-87.602;2023-03-01T03:30:13;28.20;25.00;15.00
49343;PMS5003;35210;41.606;-87.602;2023-03-01T03:32:43;27.20;23.00;12.00
49343;PMS5003;35210;41.606;-87.602;2023-03-01T03:35:18;23.20;20.20;14.20
49343;PMS5003;35210;41.606;-87.602;2023-03-01T03:37:48;28.40;21.40;15.00
49343;PMS5003;35210;41.606;-87.602;2023-03-01T03:40:35;25.60;22.40;12.20
49343;PMS5003;35210;41.606;-87.602;2023-03-01T03:43:05;25.40;17.00;10.40
49343;PMS5003;35210;41.606;-87.602;2023-03-01T03:45:36;20.20;17.20;10.60
49343;PMS5003;35210;41.606;-87.602;2023-03-01T03:48:05;17.60;14.80;8.00
49343;PMS5003;35210;41.606;-87.602;2023-03-01T03:50:34;18.00;16.20;10.00
49343;PMS5003;35210;41.606;-87.602;2023-03-01T03:53:03;21.80;21.00;13.40
49343;PMS5003;35210;41.606;-87.602;2023-03-01T03:55:33;17.60;14.60;9.80
49343;PMS5003;35210;41.606;-87.602;2023-03-01T03:58:05;17.00;17.00;10.60
49343;PMS5003;35210;41.606;-87.602;2023-03-01T04:00:34;16.00;16.00;9.60
49343;PMS5003;35210;41.606;-87.602;2023-03-01T04:03:05;13.40;11.80;7.40
49343;PMS5003;35210;41.606;-87.602;2023-03-01T04:05:34;15.00;14.20;7.60
49343;PMS5003;35210;41.606;-87.602;2023-03-01T04:08:03;16.00;13.80;8.80
49343;PMS5003;35210;41.606;-87.602;2023-03-01T04:10:33;12.20;12.20;8.00
49343;PMS5003;35210;41.606;-87.602;2023-03-01T04:13:03;19.60;15.80;10.00
49343;PMS5003;35210;41.606;-87.602;2023-03-01T04:15:32;18.60;15.60;10.00
49343;PMS5003;35210;41.606;-87.602;2023-03-01T04:18:03;15.40;14.20;9.00
49343;PMS5003;35210;41.606;-87.602;2023-03-01T04:20:32;13.00;12.80;8.00
49343;PMS5003;35210;41.606;-87.602;2023-03-01T04:23:02;10.40;10.20;6.20
49343;PMS5003;35210;41.606;-87.602;2023-03-01T04:25:39;18.00;14.60;9.00
49343;PMS5003;35210;41.606;-87.602;2023-03-01T04:28:08;13.00;12.60;8.40
49343;PMS5003;35210;41.606;-87.602;2023-03-01T04:30:36;10.00;10.00;6.20
49343;PMS5003;35210;41.606;-87.602;2023-03-01T04:33:08;13.20;11.60;7.80
49343;PMS5003;35210;41.606;-87.602;2023-03-01T04:35:37;13.80;12.80;8.00
49343;PMS5003;35210;41.606;-87.602;2023-03-01T04:38:06;10.60;10.60;4.40
49343;PMS5003;35210;41.606;-87.602;2023-03-01T04:40:34;12.20;11.80;8.00
49343;PMS5003;35210;41.606;-87.602;2023-03-01T04:43:03;14.40;14.40;9.00
49343;PMS5003;35210;41.606;-87.602;2023-03-01T04:45:31;10.80;9.80;5.40
49343;PMS5003;35210;41.606;-87.602;2023-03-01T04:48:01;16.80;14.80;9.40
49343;PMS5003;35210;41.606;-87.602;2023-03-01T04:50:32;15.00;14.60;7.60
49343;PMS5003;35210;41.606;-87.602;2023-03-01T04:53:00;13.20;11.80;8.00
49343;PMS5003;35210;41.606;-87.602;2023-03-01T04:55:29;14.40;13.60;8.60
49343;PMS5003;35210;41.606;-87.602;2023-03-01T04:57:57;17.20;12.00;7.80
49343;PMS5003;35210;41.606;-87.602;2023-03-01T05:00:25;17.00;16.00;9.00
49343;PMS5003;35210;41.606;-87.602;2023-03-01T05:02:54;17.00;13.60;8.00
49343;PMS5003;35210;41.606;-87.602;2023-03-01T05:05:24;15.60;12.40;8.00
49343;PMS5003;35210;41.606;-87.602;2023-03-01T05:07:56;15.20;15.20;8.80
49343;PMS5003;35210;41.606;-87.602;2023-03-01T05:10:26;14.20;13.20;8.80
49343;PMS5003;35210;41.606;-87.602;2023-03-01T05:12:56;14.20;12.40;9.40
49343;PMS5003;35210;41.606;-87.602;2023-03-01T05:15:24;10.00;10.00;6.00
49343;PMS5003;35210;41.606;-87.602;2023-03-01T05:17:53;11.80;11.60;7.80
49343;PMS5003;35210;41.606;-87.602;2023-03-01T05:20:24;14.00;14.00;8.00
49343;PMS5003;35210;41.606;-87.602;2023-03-01T05:22:53;15.40;15.40;8.20
49343;PMS5003;35210;41.606;-87.602;2023-03-01T05:25:25;12.00;12.00;8.00
49343;PMS5003;35210;41.606;-87.602;2023-03-01T05:27:58;15.00;15.00;9.00
49343;PMS5003;35210;41.606;-87.602;2023-03-01T05:30:30;13.00;13.00;8.00
49343;PMS5003;35210;41.606;-87.602;2023-03-01T05:32:58;10.60;10.60;7.40
49343;PMS5003;35210;41.606;-87.602;2023-03-01T05:35:26;13.20;10.60;6.20
49343;PMS5003;35210;41.606;-87.602;2023-03-01T05:37:57;13.80;11.40;6.80
49343;PMS5003;35210;41.606;-87.602;2023-03-01T05:40:25;12.80;10.00;7.80
49343;PMS5003;35210;41.606;-87.602;2023-03-01T05:42:55;12.00;11.80;8.00
49343;PMS5003;35210;41.606;-87.602;2023-03-01T05:45:24;10.80;10.00;6.40
49343;PMS5003;35210;41.606;-87.602;2023-03-01T05:47:54;14.40;11.00;8.00
49343;PMS5003;35210;41.606;-87.602;2023-03-01T05:50:23;13.20;12.40;9.00
49343;PMS5003;35210;41.606;-87.602;2023-03-01T05:52:58;17.20;16.00;9.20
49343;PMS5003;35210;41.606;-87.602;2023-03-01T05:55:27;17.00;14.80;9.00
49343;PMS5003;35210;41.606;-87.602;2023-03-01T05:57:58;16.00;15.00;9.00
49343;PMS5003;35210;41.606;-87.602;2023-03-01T06:00:27;15.20;13.00;8.00
49343;PMS5003;35210;41.606;-87.602;2023-03-01T06:02:56;22.40;17.20;9.20
49343;PMS5003;35210;41.606;-87.602;2023-03-01T06:05:25;15.60;14.60;9.00
49343;PMS5003;35210;41.606;-87.602;2023-03-01T06:07:53;20.40;16.40;9.60
49343;PMS5003;35210;41.606;-87.602;2023-03-01T06:10:23;21.60;18.00;10.60
49343;PMS5003;35210;41.606;-87.602;2023-03-01T06:12:52;12.40;12.40;8.80
49343;PMS5003;35210;41.606;-87.602;2023-03-01T06:15:20;16.40;16.40;11.40
49343;PMS5003;35210;41.606;-87.602;2023-03-01T06:17:49;19.00;18.60;9.60
49343;PMS5003;35210;41.606;-87.602;2023-03-01T06:20:18;22.60;19.20;10.00
49343;PMS5003;35210;41.606;-87.602;2023-03-01T06:22:47;20.60;20.20;11.00
49343;PMS5003;35210;41.606;-87.602;2023-03-01T06:25:17;16.00;16.00;12.20
49343;PMS5003;35210;41.606;-87.602;2023-03-01T06:27:48;22.60;19.20;10.00
49343;PMS5003;35210;41.606;-87.602;2023-03-01T06:30:18;28.00;25.00;14.80
49343;PMS5003;35210;41.606;-87.602;2023-03-01T06:32:47;18.40;18.40;9.20
49343;PMS5003;35210;41.606;-87.602;2023-03-01T06:35:16;24.00;24.00;13.80
49343;PMS5003;35210;41.606;-87.602;2023-03-01T06:37:45;26.60;25.40;14.40
49343;PMS5003;35210;41.606;-87.602;2023-03-01T06:40:14;19.80;19.80;11.40
49343;PMS5003;35210;41.606;-87.602;2023-03-01T06:42:46;29.60;27.00;14.60
49343;PMS5003;35210;41.606;-87.602;2023-03-01T06:45:17;22.60;21.20;14.00
49343;PMS5003;35210;41.606;-87.602;2023-03-01T06:47:47;25.80;21.40;15.00
49343;PMS5003;35210;41.606;-87.602;2023-03-01T06:50:15;28.20;25.60;15.20
49343;PMS5003;35210;41.606;-87.602;2023-03-01T06:52:44;29.00;27.20;16.20
49343;PMS5003;35210;41.606;-87.602;2023-03-01T06:55:12;28.40;28.40;16.00
49343;PMS5003;35210;41.606;-87.602;2023-03-01T06:57:40;27.20;25.40;18.60
49343;PMS5003;35210;41.606;-87.602;2023-03-01T07:00:11;27.20;25.20;15.80
49343;PMS5003;35210;41.606;-87.602;2023-03-01T07:02:39;35.00;29.40;18.20
49343;PMS5003;35210;41.606;-87.602;2023-03-01T07:05:08;26.60;23.80;14.00
49343;PMS5003;35210;41.606;-87.602;2023-03-01T07:07:36;32.20;28.00;17.80
49343;PMS5003;35210;41.606;-87.602;2023-03-01T07:10:04;29.00;27.40;17.00
49343;PMS5003;35210;41.606;-87.602;2023-03-01T07:12:33;31.40;30.20;17.20
49343;PMS5003;35210;41.606;-87.602;2023-03-01T07:15:01;31.00;28.60;15.40
49343;PMS5003;35210;41.606;-87.602;2023-03-01T07:17:31;28.00;26.80;16.00
49343;PMS5003;35210;41.606;-87.602;2023-03-01T07:19:59;29.40;28.00;16.60
49343;PMS5003;35210;41.606;-87.602;2023-03-01T07:22:27;27.60;23.00;14.80
49343;PMS5003;35210;41.606;-87.602;2023-03-01T07:24:55;28.00;20.60;12.00
49343;PMS5003;35210;41.606;-87.602;2023-03-01T07:27:23;26.00;23.80;14.20
49343;PMS5003;35210;41.606;-87.602;2023-03-01T07:29:51;27.40;23.00;13.60
49343;PMS5003;35210;41.606;-87.602;2023-03-01T07:32:19;27.60;25.60;15.20
49343;PMS5003;35210;41.606;-87.602;2023-03-01T07:34:50;28.20;24.20;12.40
49343;PMS5003;35210;41.606;-87.602;2023-03-01T07:37:18;29.40;24.80;16.40
49343;PMS5003;35210;41.606;-87.602;2023-03-01T07:39:46;22.40;22.40;13.00
49343;PMS5003;35210;41.606;-87.602;2023-03-01T07:42:15;27.20;25.00;13.80
49343;PMS5003;35210;41.606;-87.602;2023-03-01T07:44:43;25.00;23.00;13.60
49343;PMS5003;35210;41.606;-87.602;2023-03-01T07:47:11;26.60;25.80;13.20
49343;PMS5003;35210;41.606;-87.602;2023-03-01T07:49:40;30.00;26.40;14.20
49343;PMS5003;35210;41.606;-87.602;2023-03-01T07:52:11;25.60;25.60;12.80
49343;PMS5003;35210;41.606;-87.602;2023-03-01T07:54:41;32.60;30.00;18.40
49343;PMS5003;35210;41.606;-87.602;2023-03-01T07:57:11;28.20;25.20;13.20
49343;PMS5003;35210;41.606;-87.602;2023-03-01T07:59:39;28.80;25.60;13.40
49343;PMS5003;35210;41.606;-87.602;2023-03-01T08:02:07;34.60;30.20;17.20
49343;PMS5003;35210;41.606;-87.602;2023-03-01T08:04:37;33.60;28.80;14.00
49343;PMS5003;35210;41.606;-87.602;2023-03-01T08:07:05;22.60;19.80;13.00
49343;PMS5003;35210;41.606;-87.602;2023-03-01T08:09:35;20.20;18.80;11.00
49343;PMS5003;35210;41.606;-87.602;2023-03-01T08:12:04;25.20;24.20;11.80
49343;PMS5003;35210;41.606;-87.602;2023-03-01T08:14:32;25.00;24.20;15.00
49343;PMS5003;35210;41.606;-87.602;2023-03-01T08:17:00;30.20;24.40;14.00
49343;PMS5003;35210;41.606;-87.602;2023-03-01T08:19:30;29.00;24.20;13.00
49343;PMS5003;35210;41.606;-87.602;2023-03-01T08:21:59;33.00;26.80;14.40
49343;PMS5003;35210;41.606;-87.602;2023-03-01T08:24:28;26.20;24.80;15.00
49343;PMS5003;35210;41.606;-87.602;2023-03-01T08:26:58;29.80;25.80;15.40
49343;PMS5003;35210;41.606;-87.602;2023-03-01T08:29:28;21.00;16.80;10.40
49343;PMS5003;35210;41.606;-87.602;2023-03-01T08:31:57;27.40;26.60;14.80
49343;PMS5003;35210;41.606;-87.602;2023-03-01T08:34:25;33.20;25.80;16.40
49343;PMS5003;35210;41.606;-87.602;2023-03-01T08:36:53;35.40;28.20;16.40
49343;PMS5003;35210;41.606;-87.602;2023-03-01T08:39:22;24.40;23.60;13.60
49343;PMS5003;35210;41.606;-87.602;2023-03-01T08:41:50;26.00;26.00;13.80
49343;PMS5003;35210;41.606;-87.602;2023-03-01T08:44:19;29.00;25.80;13.20
49343;PMS5003;35210;41.606;-87.602;2023-03-01T08:46:47;31.80;27.00;15.40
49343;PMS5003;35210;41.606;-87.602;2023-03-01T08:49:18;28.80;25.40;13.80
49343;PMS5003;35210;41.606;-87.602;2023-03-01T08:51:47;26.80;22.60;14.60
49343;PMS5003;35210;41.606;-87.602;2023-03-01T08:54:16;24.60;24.60;13.80
49343;PMS5003;35210;41.606;-87.602;2023-03-01T08:56:46;26.60;23.20;11.60
49343;PMS5003;35210;41.606;-87.602;2023-03-01T08:59:17;32.20;26.40;14.00
49343;PMS5003;35210;41.606;-87.602;2023-03-01T09:01:47;31.80;28.60;16.60
49343;PMS5003;35210;41.606;-87.602;2023-03-01T09:04:15;26.80;23.40;12.60
49343;PMS5003;35210;41.606;-87.602;2023-03-01T09:06:43;23.80;21.40;11.20
49343;PMS5003;35210;41.606;-87.602;2023-03-01T09:09:12;27.40;26.00;16.60
49343;PMS5003;35210;41.606;-87.602;2023-03-01T09:11:42;30.60;25.20;13.60
49343;PMS5003;35210;41.606;-87.602;2023-03-01T09:14:15;24.00;23.00;13.80
49343;PMS5003;35210;41.606;-87.602;2023-03-01T09:16:45;26.00;22.60;12.40
49343;PMS5003;35210;41.606;-87.602;2023-03-01T09:19:13;33.60;30.60;17.00
49343;PMS5003;35210;41.606;-87.602;2023-03-01T09:21:41;37.20;31.80;17.80
49343;PMS5003;35210;41.606;-87.602;2023-03-01T09:24:18;34.40;30.80;16.40
49343;PMS5003;35210;41.606;-87.602;2023-03-01T09:26:47;39.60;32.20;17.60
49343;PMS5003;35210;41.606;-87.602;2023-03-01T09:29:16;42.80;34.40;16.80
49343;PMS5003;35210;41.606;-87.602;2023-03-01T09:31:45;35.40;31.80;17.20
49343;PMS5003;35210;41.606;-87.602;2023-03-01T09:34:13;38.80;36.00;16.00
49343;PMS5003;35210;41.606;-87.602;2023-03-01T09:36:48;40.20;35.40;16.00
49343;PMS5003;35210;41.606;-87.602;2023-03-01T09:39:17;38.80;32.80;16.20
49343;PMS5003;35210;41.606;-87.602;2023-03-01T09:41:50;37.60;34.80;19.20
49343;PMS5003;35210;41.606;-87.602;2023-03-01T09:44:29;43.80;35.80;19.20
49343;PMS5003;35210;41.606;-87.602;2023-03-01T09:47:07;32.60;25.00;14.20
49343;PMS5003;35210;41.606;-87.602;2023-03-01T09:49:40;32.00;30.00;17.00
49343;PMS5003;35210;41.606;-87.602;2023-03-01T09:52:17;30.40;27.80;13.20
49343;PMS5003;35210;41.606;-87.602;2023-03-01T09:54:53;31.00;29.20;15.80
49343;PMS5003;35210;41.606;-87.602;2023-03-01T09:57:26;36.00;29.60;14.40
49343;PMS5003;35210;41.606;-87.602;2023-03-01T10:00:03;35.40;31.40;16.20
49343;PMS5003;35210;41.606;-87.602;2023-03-01T10:02:59;28.80;26.20;15.80
49343;PMS5003;35210;41.606;-87.602;2023-03-01T10:05:42;32.20;30.20;14.60
49343;PMS5003;35210;41.606;-87.602;2023-03-01T10:08:27;29.40;27.00;13.00
49343;PMS5003;35210;41.606;-87.602;2023-03-01T10:11:02;29.80;28.60;15.20
49343;PMS5003;35210;41.606;-87.602;2023-03-01T10:13:34;37.00;32.40;16.60
49343;PMS5003;35210;41.606;-87.602;2023-03-01T10:16:15;38.20;31.40;17.00
49343;PMS5003;35210;41.606;-87.602;2023-03-01T10:18:49;28.80;25.00;16.20
49343;PMS5003;35210;41.606;-87.602;2023-03-01T10:21:22;31.40;28.40;13.40
49343;PMS5003;35210;41.606;-87.602;2023-03-01T10:23:51;25.80;23.40;11.60
49343;PMS5003;35210;41.606;-87.602;2023-03-01T10:26:32;27.20;27.00;14.40
49343;PMS5003;35210;41.606;-87.602;2023-03-01T10:29:09;34.00;29.60;16.60
49343;PMS5003;35210;41.606;-87.602;2023-03-01T10:31:39;33.20;29.60;16.00
49343;PMS5003;35210;41.606;-87.602;2023-03-01T10:34:13;29.60;23.60;11.80
49343;PMS5003;35210;41.606;-87.602;2023-03-01T10:36:43;29.80;27.40;16.80
49343;PMS5003;35210;41.606;-87.602;2023-03-01T10:39:16;30.80;26.20;14.00
49343;PMS5003;35210;41.606;-87.602;2023-03-01T10:41:53;28.40;23.00;9.00
49343;PMS5003;35210;41.606;-87.602;2023-03-01T10:47:16;33.80;31.60;16.40
49343;PMS5003;35210;41.606;-87.602;2023-03-01T10:49:53;31.00;31.00;17.00
49343;PMS5003;35210;41.606;-87.602;2023-03-01T10:52:32;30.60;29.20;17.40
49343;PMS5003;35210;41.606;-87.602;2023-03-01T10:55:03;31.60;27.00;16.60
49343;PMS5003;35210;41.606;-87.602;2023-03-01T10:57:51;32.00;26.00;14.00
49343;PMS5003;35210;41.606;-87.602;2023-03-01T11:00:35;35.80;29.20;13.60
49343;PMS5003;35210;41.606;-87.602;2023-03-01T11:03:16;31.60;30.60;16.20
49343;PMS5003;35210;41.606;-87.602;2023-03-01T11:05:53;38.80;34.40;18.20
49343;PMS5003;35210;41.606;-87.602;2023-03-01T11:08:30;41.00;35.80;18.60
49343;PMS5003;35210;41.606;-87.602;2023-03-01T11:14:00;30.00;27.00;14.20
49343;PMS5003;35210;41.606;-87.602;2023-03-01T11:16:34;33.20;31.20;18.40
49343;PMS5003;35210;41.606;-87.602;2023-03-01T11:19:17;37.60;32.60;17.80
49343;PMS5003;35210;41.606;-87.602;2023-03-01T11:21:50;30.20;27.20;13.00
49343;PMS5003;35210;41.606;-87.602;2023-03-01T11:24:26;33.40;32.60;16.80
49343;PMS5003;35210;41.606;-87.602;2023-03-01T11:26:59;37.60;34.80;18.00
49343;PMS5003;35210;41.606;-87.602;2023-03-01T11:29:32;37.40;33.20;16.80
49343;PMS5003;35210;41.606;-87.602;2023-03-01T11:32:06;35.00;33.20;19.60
49343;PMS5003;35210;41.606;-87.602;2023-03-01T11:34:38;34.00;31.60;17.00
49343;PMS5003;35210;41.606;-87.602;2023-03-01T11:37:15;37.40;32.60;17.00
49343;PMS5003;35210;41.606;-87.602;2023-03-01T11:39:52;37.80;34.60;18.60
49343;PMS5003;35210;41.606;-87.602;2023-03-01T11:42:28;37.00;30.20;17.00
49343;PMS5003;35210;41.606;-87.602;2023-03-01T11:45:06;34.20;33.00;18.40
49343;PMS5003;35210;41.606;-87.602;2023-03-01T11:47:43;34.60;33.00;14.80
49343;PMS5003;35210;41.606;-87.602;2023-03-01T11:50:29;35.40;29.20;16.80
49343;PMS5003;35210;41.606;-87.602;2023-03-01T11:53:13;34.60;32.20;17.40
49343;PMS5003;35210;41.606;-87.602;2023-03-01T11:56:05;31.40;27.80;14.60
49343;PMS5003;35210;41.606;-87.602;2023-03-01T12:01:42;26.80;25.00;17.00
49343;PMS5003;35210;41.606;-87.602;2023-03-01T12:07:25;41.40;35.80;20.00
49343;PMS5003;35210;41.606;-87.602;2023-03-01T12:10:21;29.20;27.00;16.80
49343;PMS5003;35210;41.606;-87.602;2023-03-01T12:12:57;40.80;36.20;18.40
49343;PMS5003;35210;41.606;-87.602;2023-03-01T12:15:57;23.40;22.40;13.00
49343;PMS5003;35210;41.606;-87.602;2023-03-01T12:19:05;43.80;35.40;20.20
49343;PMS5003;35210;41.606;-87.602;2023-03-01T12:21:46;35.40;33.80;18.00
49343;PMS5003;35210;41.606;-87.602;2023-03-01T12:24:39;49.60;37.20;17.80
49343;PMS5003;35210;41.606;-87.602;2023-03-01T12:27:40;40.40;34.00;16.20
49343;PMS5003;35210;41.606;-87.602;2023-03-01T12:30:25;41.80;35.40;17.40
49343;PMS5003;35210;41.606;-87.602;2023-03-01T12:33:08;35.00;32.00;17.80
49343;PMS5003;35210;41.606;-87.602;2023-03-01T12:36:08;41.00;35.40;17.80
49343;PMS5003;35210;41.606;-87.602;2023-03-01T12:38:56;40.80;37.00;18.00
49343;PMS5003;35210;41.606;-87.602;2023-03-01T12:41:37;37.40;33.80;18.00
49343;PMS5003;35210;41.606;-87.602;2023-03-01T12:44:38;31.40;30.60;18.40
49343;PMS5003;35210;41.606;-87.602;2023-03-01T12:47:22;45.00;35.00;18.00
49343;PMS5003;35210;41.606;-87.602;2023-03-01T12:50:03;31.40;29.00;16.80
49343;PMS5003;35210;41.606;-87.602;2023-03-01T12:52:39;37.60;33.20;18.40
49343;PMS5003;35210;41.606;-87.602;2023-03-01T12:55:17;40.00;32.80;16.40
49343;PMS5003;35210;41.606;-87.602;2023-03-01T12:57:59;33.20;30.00;19.00
49343;PMS5003;35210;41.606;-87.602;2023-03-01T13:00:37;37.60;34.20;18.20
49343;PMS5003;35210;41.606;-87.602;2023-03-01T13:03:15;37.60;35.00;18.00
49343;PMS5003;35210;41.606;-87.602;2023-03-01T13:05:56;39.20;32.60;17.80
49343;PMS5003;35210;41.606;-87.602;2023-03-01T13:08:36;45.20;37.00;19.00
49343;PMS5003;35210;41.606;-87.602;2023-03-01T13:11:13;41.00;35.00;17.20
49343;PMS5003;35210;41.606;-87.602;2023-03-01T13:13:45;45.60;37.60;20.00
49343;PMS5003;35210;41.606;-87.602;2023-03-01T13:16:22;31.40;28.80;18.60
49343;PMS5003;35210;41.606;-87.602;2023-03-01T13:19:10;34.40;27.40;17.60
49343;PMS5003;35210;41.606;-87.602;2023-03-01T13:21:41;44.00;34.60;16.20
49343;PMS5003;35210;41.606;-87.602;2023-03-01T13:24:23;40.40;36.80;21.00
49343;PMS5003;35210;41.606;-87.602;2023-03-01T13:27:18;32.20;28.20;17.60
49343;PMS5003;35210;41.606;-87.602;2023-03-01T13:29:55;35.60;26.40;14.00
49343;PMS5003;35210;41.606;-87.602;2023-03-01T13:32:28;48.60;41.20;19.80
49343;PMS5003;35210;41.606;-87.602;2023-03-01T13:34:58;34.00;33.40;19.00
49343;PMS5003;35210;41.606;-87.602;2023-03-01T13:37:37;44.40;37.60;20.20
49343;PMS5003;35210;41.606;-87.602;2023-03-01T13:43:28;36.80;35.80;19.80
49343;PMS5003;35210;41.606;-87.602;2023-03-01T13:45:58;45.80;38.20;20.60
49343;PMS5003;35210;41.606;-87.602;2023-03-01T13:48:29;40.40;35.60;21.00
49343;PMS5003;35210;41.606;-87.602;2023-03-01T13:50:58;38.20;32.80;19.40
49343;PMS5003;35210;41.606;-87.602;2023-03-01T13:53:29;37.40;33.60;17.40
49343;PMS5003;35210;41.606;-87.602;2023-03-01T13:56:02;42.00;34.20;19.00
49343;PMS5003;35210;41.606;-87.602;2023-03-01T13:58:44;36.00;32.00;16.40
49343;PMS5003;35210;41.606;-87.602;2023-03-01T14:01:23;35.80;32.80;19.60
49343;PMS5003;35210;41.606;-87.602;2023-03-01T14:03:57;31.60;29.60;15.00
49343;PMS5003;35210;41.606;-87.602;2023-03-01T14:06:27;31.60;29.00;16.00
49343;PMS5003;35210;41.606;-87.602;2023-03-01T14:09:02;38.40;32.60;17.60